createdAt,value
2018-07-14T00:00:34.297Z,67.72
2018-07-14T00:03:02.961Z,67.59
2018-07-14T00:05:32.235Z,67.72
2018-07-14T00:08:00.751Z,67.42
2018-07-14T00:10:30.013Z,66.87
2018-07-14T00:12:58.654Z,67.72
2018-07-14T00:15:27.835Z,67.30
2018-07-14T00:17:57.267Z,67.66
2018-07-14T00:20:26.653Z,68.03
2018-07-14T00:22:55.502Z,67.94
2018-07-14T00:25:29.266Z,68.02
2018-07-14T00:27:58.257Z,68.00
2018-07-14T00:30:26.825Z,67.48
2018-07-14T00:32:56.394Z,67.87
2018-07-14T00:35:25.050Z,67.82
2018-07-14T00:37:53.614Z,67.59
2018-07-14T00:40:23.023Z,67.52
2018-07-14T00:42:52.171Z,67.61
2018-07-14T00:45:21.448Z,67.08
2018-07-14T00:47:49.989Z,67.35
2018-07-14T00:50:18.807Z,67.48
2018-07-14T00:52:47.360Z,66.90
2018-07-14T00:55:16.040Z,67.46
2018-07-14T00:57:45.153Z,68.21
2018-07-14T01:00:14.645Z,67.99
2018-07-14T01:02:43.162Z,68.24
2018-07-14T01:05:11.787Z,67.99
2018-07-14T01:07:40.314Z,68.35
2018-07-14T01:10:08.965Z,67.69
2018-07-14T01:12:38.402Z,68.33
2018-07-14T01:15:08.067Z,67.93
2018-07-14T01:17:38.887Z,67.45
2018-07-14T01:20:07.499Z,67.37
2018-07-14T01:22:36.521Z,67.37
2018-07-14T01:25:05.385Z,68.07
2018-07-14T01:27:34.497Z,67.62
2018-07-14T01:30:03.365Z,67.87
2018-07-14T01:32:32.418Z,67.88
2018-07-14T01:35:01.349Z,68.01
2018-07-14T01:37:30.449Z,68.16
2018-07-14T01:39:59.489Z,67.90
2018-07-14T01:42:28.697Z,68.13
2018-07-14T01:44:57.234Z,68.18
2018-07-14T01:47:25.757Z,68.05
2018-07-14T01:49:54.349Z,67.91
2018-07-14T01:52:23.126Z,67.79
2018-07-14T01:54:51.656Z,67.55
2018-07-14T01:57:20.221Z,67.91
2018-07-14T01:59:48.775Z,68.31
2018-07-14T02:02:17.369Z,68.36
2018-07-14T02:04:46.262Z,68.49
2018-07-14T02:07:14.840Z,69.00
2018-07-14T02:09:43.437Z,68.82
2018-07-14T02:12:12.098Z,68.99
2018-07-14T02:14:40.696Z,69.48
2018-07-14T02:17:09.772Z,69.77
2018-07-14T02:19:39.364Z,70.06
2018-07-14T02:22:08.026Z,70.06
2018-07-14T02:24:36.501Z,69.91
2018-07-14T02:27:05.049Z,69.72
2018-07-14T02:29:33.906Z,69.68
2018-07-14T02:32:02.585Z,69.85
2018-07-14T02:34:31.077Z,70.51
2018-07-14T02:36:59.656Z,71.16
2018-07-14T02:39:28.187Z,71.91
2018-07-14T02:41:56.831Z,71.96
2018-07-14T02:44:25.376Z,71.98
2018-07-14T02:46:53.962Z,72.20
2018-07-14T02:49:22.849Z,71.56
2018-07-14T02:51:51.469Z,72.14
2018-07-14T02:54:20.157Z,71.78
2018-07-14T02:56:49.951Z,72.03
2018-07-14T02:59:18.445Z,71.86
2018-07-14T03:01:46.994Z,71.44
2018-07-14T03:04:15.570Z,72.09
2018-07-14T03:06:44.150Z,71.93
2018-07-14T03:09:13.358Z,71.69
2018-07-14T03:11:42.909Z,71.78
2018-07-14T03:14:11.715Z,72.24
2018-07-14T03:16:40.225Z,72.06
2018-07-14T03:19:08.795Z,72.70
2018-07-14T03:21:37.338Z,72.13
2018-07-14T03:24:07.491Z,72.01
2018-07-14T03:26:36.056Z,71.78
2018-07-14T03:29:05.907Z,71.54
2018-07-14T03:31:34.985Z,72.23
2018-07-14T03:34:04.408Z,71.65
2018-07-14T03:36:33.628Z,71.17
2018-07-14T03:39:05.517Z,71.17
2018-07-14T03:41:34.949Z,71.32
2018-07-14T03:44:03.910Z,71.68
2018-07-14T03:46:32.822Z,71.72
2018-07-14T03:49:02.339Z,71.96
2018-07-14T03:51:33.735Z,72.37
2018-07-14T03:54:05.290Z,72.13
2018-07-14T03:56:34.104Z,72.04
2018-07-14T03:59:04.499Z,71.62
2018-07-14T04:01:33.911Z,71.34
2018-07-14T04:04:02.641Z,70.93
2018-07-14T04:06:31.659Z,70.93
2018-07-14T04:09:00.298Z,70.58
2018-07-14T04:11:28.901Z,70.61
2018-07-14T04:13:57.624Z,70.85
2018-07-14T04:16:26.717Z,71.79
2018-07-14T04:18:55.468Z,71.67
2018-07-14T04:21:24.049Z,71.43
2018-07-14T04:23:52.752Z,71.94
2018-07-14T04:26:21.313Z,72.45
2018-07-14T04:28:50.026Z,72.16
2018-07-14T04:31:18.626Z,72.45
2018-07-14T04:33:47.274Z,72.17
2018-07-14T04:36:15.830Z,71.84
2018-07-14T04:38:44.339Z,71.86
2018-07-14T04:41:12.959Z,71.75
2018-07-14T04:43:41.568Z,72.33
2018-07-14T04:46:10.782Z,72.85
2018-07-14T04:48:39.457Z,72.87
2018-07-14T04:51:08.290Z,71.92
2018-07-14T04:53:36.807Z,71.77
2018-07-14T04:56:05.451Z,71.46
2018-07-14T04:58:34.201Z,71.19
2018-07-14T05:01:02.761Z,71.08
2018-07-14T05:03:32.254Z,70.56
2018-07-14T05:06:01.148Z,70.39
2018-07-14T05:08:29.775Z,70.52
2018-07-14T05:10:59.093Z,70.51
2018-07-14T05:13:28.225Z,70.67
2018-07-14T05:15:56.699Z,70.40
2018-07-14T05:18:25.937Z,70.42
2018-07-14T05:20:54.481Z,70.14
2018-07-14T05:23:23.233Z,70.03
2018-07-14T05:25:51.732Z,69.50
2018-07-14T05:29:49.880Z,70.20
2018-07-14T05:32:19.143Z,69.36
2018-07-14T05:34:47.818Z,68.93
2018-07-14T05:37:17.266Z,69.19
2018-07-14T05:39:45.954Z,69.32
2018-07-14T05:42:16.397Z,68.31
2018-07-14T05:44:46.123Z,68.21
2018-07-14T05:47:15.844Z,67.65
2018-07-14T05:49:44.460Z,67.94
2018-07-14T05:52:13.069Z,68.06
2018-07-14T05:54:41.564Z,67.94
2018-07-14T05:57:10.854Z,67.88
2018-07-14T05:59:39.991Z,68.29
2018-07-14T06:02:08.657Z,68.80
2018-07-14T06:04:37.153Z,68.89
2018-07-14T06:07:05.717Z,69.12
2018-07-14T06:09:34.932Z,68.10
2018-07-14T06:12:04.261Z,68.61
2018-07-14T06:14:32.896Z,68.54
2018-07-14T06:17:02.532Z,66.83
2018-07-14T06:19:31.386Z,66.53
2018-07-14T06:21:59.975Z,66.41
2018-07-14T06:24:28.600Z,66.20
2018-07-14T06:26:57.351Z,66.17
2018-07-14T06:29:26.028Z,65.48
2018-07-14T06:31:54.590Z,65.57
2018-07-14T06:34:23.079Z,65.30
2018-07-14T06:36:51.617Z,65.59
2018-07-14T06:39:20.221Z,64.86
2018-07-14T06:41:48.903Z,65.75
2018-07-14T06:44:18.489Z,64.45
2018-07-14T06:46:47.774Z,64.29
2018-07-14T06:49:18.105Z,64.64
2018-07-14T06:51:46.653Z,64.00
2018-07-14T06:54:16.899Z,63.74
2018-07-14T06:56:47.386Z,63.74
2018-07-14T06:59:15.917Z,63.39
2018-07-14T07:01:46.402Z,63.32
2018-07-14T07:04:17.602Z,62.42
2018-07-14T07:06:46.644Z,62.72
2018-07-14T07:09:18.753Z,62.04
2018-07-14T07:11:48.874Z,61.89
2018-07-14T07:14:17.507Z,61.43
2018-07-14T07:16:48.085Z,61.98
2018-07-14T07:19:17.933Z,62.57
2018-07-14T07:21:47.633Z,61.60
2018-07-14T07:24:17.967Z,62.77
2018-07-14T07:26:48.419Z,62.71
2018-07-14T07:29:17.027Z,62.13
2018-07-14T07:31:46.023Z,61.90
2018-07-14T07:34:14.567Z,60.47
2018-07-14T07:36:44.137Z,60.39
2018-07-14T07:39:12.644Z,61.00
2018-07-14T07:41:42.260Z,61.12
2018-07-14T07:44:11.604Z,59.66
2018-07-14T07:46:40.088Z,59.82
2018-07-14T07:49:08.698Z,59.03
2018-07-14T07:51:37.219Z,59.98
2018-07-14T07:54:05.984Z,60.21
2018-07-14T07:56:34.475Z,60.63
2018-07-14T07:59:03.307Z,59.43
2018-07-14T08:01:31.833Z,59.48
2018-07-14T08:04:01.188Z,59.39
2018-07-14T08:06:29.871Z,60.09
2018-07-14T08:08:58.517Z,60.85
2018-07-14T08:11:27.965Z,59.73
2018-07-14T08:13:57.340Z,60.82
2018-07-14T08:16:26.455Z,59.71
2018-07-14T08:18:55.272Z,60.33
2018-07-14T08:21:25.498Z,60.39
2018-07-14T08:23:54.405Z,60.08
2018-07-14T08:26:23.308Z,59.85
2018-07-14T08:28:52.330Z,60.28
2018-07-14T08:31:22.076Z,59.46
2018-07-14T08:36:27.141Z,59.21
2018-07-14T08:38:57.268Z,59.02
2018-07-14T08:41:27.884Z,58.76
2018-07-14T08:44:00.111Z,59.36
2018-07-14T08:46:31.724Z,58.77
2018-07-14T08:49:02.863Z,58.58
2018-07-14T08:51:32.379Z,59.17
2018-07-14T08:54:01.609Z,60.13
2018-07-14T08:56:30.754Z,58.65
2018-07-14T08:59:00.026Z,58.93
2018-07-14T09:01:28.628Z,58.18
2018-07-14T09:03:57.304Z,57.98
2018-07-14T09:06:26.093Z,57.42
2018-07-14T09:08:56.596Z,57.25
2018-07-14T09:11:25.467Z,57.33
2018-07-14T09:13:56.246Z,56.38
2018-07-14T09:16:25.865Z,57.79
2018-07-14T09:18:54.620Z,57.10
2018-07-14T09:21:23.152Z,57.17
2018-07-14T09:23:51.720Z,56.77
2018-07-14T09:26:20.957Z,56.74
2018-07-14T09:28:50.150Z,56.50
2018-07-14T09:31:19.120Z,57.63
2018-07-14T09:33:50.097Z,56.77
2018-07-14T09:36:18.764Z,56.69
2018-07-14T09:38:48.258Z,57.12
2018-07-14T09:41:17.616Z,55.98
2018-07-14T09:43:47.841Z,56.50
2018-07-14T09:46:17.206Z,56.87
2018-07-14T09:48:46.205Z,55.33
2018-07-14T09:51:16.269Z,55.99
2018-07-14T09:53:45.223Z,56.58
2018-07-14T09:56:13.869Z,56.03
2018-07-14T09:58:42.407Z,55.96
2018-07-14T10:01:12.622Z,55.23
2018-07-14T10:03:41.865Z,54.87
2018-07-14T10:06:10.836Z,55.08
2018-07-14T10:08:39.686Z,53.83
2018-07-14T10:11:08.238Z,55.16
2018-07-14T10:13:37.724Z,54.88
2018-07-14T10:16:06.347Z,55.82
2018-07-14T10:18:35.062Z,53.79
2018-07-14T10:21:03.724Z,54.33
2018-07-14T10:23:32.481Z,52.97
2018-07-14T10:26:01.191Z,51.51
2018-07-14T10:28:30.823Z,52.77
2018-07-14T10:30:59.604Z,53.39
2018-07-14T10:33:28.331Z,53.29
2018-07-14T10:35:56.775Z,52.53
2018-07-14T10:38:26.161Z,52.93
2018-07-14T10:40:55.329Z,53.43
2018-07-14T10:43:24.732Z,53.20
2018-07-14T10:45:53.389Z,53.18
2018-07-14T10:48:22.921Z,53.55
2018-07-14T10:50:51.538Z,53.01
2018-07-14T10:53:20.253Z,50.95
2018-07-14T10:55:48.997Z,51.64
2018-07-14T10:58:17.673Z,52.85
2018-07-14T11:00:46.694Z,51.91
2018-07-14T11:03:15.306Z,51.61
2018-07-14T11:05:45.518Z,51.42
2018-07-14T11:08:15.029Z,52.08
2018-07-14T11:10:43.603Z,51.95
2018-07-14T11:13:12.656Z,51.26
2018-07-14T11:15:41.311Z,52.89
2018-07-14T11:18:10.611Z,52.42
2018-07-14T11:20:40.215Z,52.01
2018-07-14T11:23:10.650Z,51.51
2018-07-14T11:25:40.851Z,50.02
2018-07-14T11:28:11.841Z,50.90
2018-07-14T11:30:41.553Z,50.15
2018-07-14T11:33:11.782Z,49.85
2018-07-14T11:35:40.386Z,50.16
2018-07-14T11:38:10.584Z,49.84
2018-07-14T11:40:40.440Z,49.71
2018-07-14T11:43:09.296Z,50.04
2018-07-14T11:45:37.891Z,49.79
2018-07-14T11:48:07.184Z,49.34
2018-07-14T11:50:35.887Z,49.65
2018-07-14T11:53:05.834Z,50.27
2018-07-14T11:55:34.299Z,49.12
2018-07-14T11:58:03.290Z,49.40
2018-07-14T12:00:32.046Z,49.82
2018-07-14T12:03:01.637Z,48.55
2018-07-14T12:05:30.135Z,48.47
2018-07-14T12:07:59.398Z,48.32
2018-07-14T12:10:28.265Z,49.34
2018-07-14T12:12:57.420Z,49.19
2018-07-14T12:15:26.193Z,48.45
2018-07-14T12:17:54.786Z,48.32
2018-07-14T12:20:23.916Z,49.03
2018-07-14T12:22:52.652Z,47.57
2018-07-14T12:25:21.418Z,48.20
2018-07-14T12:27:51.691Z,47.58
2018-07-14T12:30:22.449Z,46.65
2018-07-14T12:32:52.101Z,46.68
2018-07-14T12:35:21.574Z,46.20
2018-07-14T12:37:51.173Z,46.47
2018-07-14T12:40:19.692Z,48.09
2018-07-14T12:42:49.043Z,47.44
2018-07-14T12:45:18.377Z,46.28
2018-07-14T12:47:47.463Z,45.96
2018-07-14T12:50:16.701Z,44.98
2018-07-14T12:52:46.896Z,46.50
2018-07-14T12:55:16.790Z,45.34
2018-07-14T12:57:45.912Z,44.86
2018-07-14T13:00:14.927Z,45.73
2018-07-14T13:02:44.845Z,45.97
2018-07-14T13:05:14.472Z,46.19
2018-07-14T13:07:43.503Z,45.82
2018-07-14T13:10:12.187Z,45.25
2018-07-14T13:12:42.398Z,44.12
2018-07-14T13:15:12.441Z,44.69
2018-07-14T13:17:41.269Z,45.13
2018-07-14T13:20:10.790Z,45.37
2018-07-14T13:22:40.214Z,44.32
2018-07-14T13:25:08.777Z,45.09
2018-07-14T13:27:38.639Z,45.74
2018-07-14T13:30:09.158Z,44.74
2018-07-14T13:32:38.898Z,45.81
2018-07-14T13:35:07.706Z,46.42
2018-07-14T13:37:36.310Z,45.05
2018-07-14T13:40:05.724Z,45.78
2018-07-14T13:42:35.285Z,44.35
2018-07-14T13:45:04.520Z,45.01
2018-07-14T13:47:34.429Z,43.82
2018-07-14T13:50:03.162Z,44.03
2018-07-14T13:52:33.313Z,43.69
2018-07-14T13:55:02.366Z,43.04
2018-07-14T13:57:30.954Z,42.85
2018-07-14T13:59:59.619Z,43.47
2018-07-14T14:02:28.322Z,44.24
2018-07-14T14:04:56.987Z,43.84
2018-07-14T14:07:26.182Z,44.29
2018-07-14T14:09:56.674Z,44.49
2018-07-14T14:12:25.886Z,44.68
2018-07-14T14:14:55.003Z,45.49
2018-07-14T14:17:24.278Z,45.45
2018-07-14T14:19:52.955Z,44.86
2018-07-14T14:22:21.516Z,43.64
2018-07-14T14:24:50.385Z,44.09
2018-07-14T14:27:19.673Z,45.07
2018-07-14T14:29:48.276Z,45.92
2018-07-14T14:32:16.840Z,44.27
2018-07-14T14:34:45.538Z,44.41
2018-07-14T14:37:15.011Z,44.59
2018-07-14T14:39:43.717Z,43.47
2018-07-14T14:42:12.847Z,43.39
2018-07-14T14:44:41.561Z,42.33
2018-07-14T14:47:10.265Z,42.20
2018-07-14T14:49:39.048Z,42.00
2018-07-14T14:52:08.142Z,41.38
2018-07-14T14:54:36.974Z,41.04
2018-07-14T14:57:07.037Z,40.95
2018-07-14T14:59:35.565Z,41.68
2018-07-14T15:02:04.375Z,41.79
2018-07-14T15:04:32.922Z,42.08
2018-07-14T15:07:02.056Z,42.30
2018-07-14T15:09:31.473Z,42.87
2018-07-14T15:12:00.150Z,42.33
2018-07-14T15:14:28.784Z,40.63
2018-07-14T15:16:57.580Z,40.60
2018-07-14T15:19:26.484Z,39.50
2018-07-14T15:21:55.082Z,38.94
2018-07-14T15:24:23.966Z,38.82
2018-07-14T15:26:53.476Z,38.71
2018-07-14T15:29:22.443Z,38.15
2018-07-14T15:38:40.509Z,37.12
2018-07-14T15:41:09.103Z,37.53
2018-07-14T15:43:37.695Z,36.83
2018-07-14T15:46:06.522Z,36.84
2018-07-14T15:48:39.496Z,37.79
2018-07-14T15:51:08.658Z,36.74
2018-07-14T15:53:38.125Z,36.67
2018-07-14T15:56:07.029Z,36.57
2018-07-14T15:58:35.513Z,36.64
2018-07-14T16:01:05.142Z,35.99
2018-07-14T16:03:33.940Z,35.84
2018-07-14T16:06:02.592Z,36.93
2018-07-14T16:08:32.222Z,35.75
2018-07-14T16:11:00.818Z,36.38
2018-07-14T16:13:29.462Z,36.45
2018-07-14T16:16:00.027Z,35.34
2018-07-14T16:18:28.603Z,35.81
2018-07-14T16:20:57.189Z,36.62
2018-07-14T16:23:26.205Z,35.24
2018-07-14T16:25:54.939Z,36.17
2018-07-14T16:28:24.197Z,35.22
2018-07-14T16:30:53.336Z,34.79
2018-07-14T16:33:21.984Z,33.75
2018-07-14T16:35:51.139Z,33.97
2018-07-14T16:38:19.658Z,33.84
2018-07-14T16:40:48.855Z,33.65
2018-07-14T16:43:17.437Z,33.00
2018-07-14T16:45:46.047Z,33.67
2018-07-14T16:48:14.713Z,33.27
2018-07-14T16:50:43.559Z,33.28
2018-07-14T16:53:13.110Z,34.39
2018-07-14T16:55:41.713Z,34.99
2018-07-14T16:58:10.313Z,34.05
2018-07-14T17:00:39.108Z,35.22
2018-07-14T17:03:08.917Z,36.08
2018-07-14T17:05:37.488Z,34.96
2018-07-14T17:08:09.195Z,35.06
2018-07-14T17:10:39.142Z,35.28
2018-07-14T17:13:08.035Z,36.11
2018-07-14T17:15:37.306Z,36.94
2018-07-14T17:18:06.261Z,36.42
2018-07-14T17:20:34.844Z,37.29
2018-07-14T17:23:03.670Z,36.63
2018-07-14T17:25:33.196Z,36.27
2018-07-14T17:28:01.850Z,37.67
2018-07-14T17:30:30.335Z,37.77
2018-07-14T17:32:58.855Z,37.94
2018-07-14T17:35:27.444Z,38.35
2018-07-14T17:37:56.666Z,38.23
2018-07-14T17:40:25.620Z,38.17
2018-07-14T17:42:55.622Z,38.90
2018-07-14T17:45:24.627Z,38.85
2018-07-14T17:47:53.066Z,39.16
2018-07-14T17:50:22.655Z,39.86
2018-07-14T17:52:51.396Z,39.82
2018-07-14T17:55:20.263Z,40.81
2018-07-14T17:57:48.846Z,40.78
2018-07-14T18:00:17.406Z,40.86
2018-07-14T18:02:46.057Z,40.94
2018-07-14T18:05:14.655Z,41.25
2018-07-14T18:07:43.186Z,41.55
2018-07-14T18:10:13.354Z,41.21
2018-07-14T18:12:42.767Z,41.70
2018-07-14T18:15:12.168Z,42.18
2018-07-14T18:17:41.273Z,42.55
2018-07-14T18:20:10.208Z,42.47
2018-07-14T18:22:38.722Z,42.24
2018-07-14T18:25:07.325Z,42.45
2018-07-14T18:27:35.844Z,42.38
2018-07-14T18:30:04.648Z,43.02
2018-07-14T18:32:33.828Z,43.10
2018-07-14T18:35:02.579Z,42.85
2018-07-14T18:37:32.176Z,43.65
2018-07-14T18:40:02.095Z,43.38
2018-07-14T18:42:30.867Z,43.47
2018-07-14T18:44:59.955Z,44.60
2018-07-14T18:47:28.608Z,44.57
2018-07-14T18:49:57.867Z,45.96
2018-07-14T18:52:27.761Z,45.48
2018-07-14T18:54:56.261Z,45.89
2018-07-14T18:57:25.434Z,45.89
2018-07-14T18:59:54.708Z,46.50
2018-07-14T19:02:23.236Z,47.23
2018-07-14T19:04:52.677Z,47.46
2018-07-14T19:07:21.594Z,48.17
2018-07-14T19:09:50.510Z,47.29
2018-07-14T19:12:19.945Z,48.36
2018-07-14T19:14:50.167Z,47.13
2018-07-14T19:17:18.989Z,48.10
2018-07-14T19:19:48.182Z,48.52
2018-07-14T19:22:16.857Z,47.99
2018-07-14T19:24:45.580Z,48.04
2018-07-14T19:27:15.113Z,48.68
2018-07-14T19:32:11.262Z,48.52
2018-07-14T19:34:40.569Z,48.66
2018-07-14T19:37:09.360Z,49.11
2018-07-14T19:39:38.986Z,50.13
2018-07-14T19:42:08.204Z,50.03
2018-07-14T19:44:37.002Z,49.88
2018-07-14T19:47:05.647Z,49.69
2018-07-14T19:49:34.195Z,49.62
2018-07-14T19:52:02.844Z,50.05
2018-07-14T19:54:32.363Z,50.61
2018-07-14T19:57:01.066Z,51.12
2018-07-14T19:59:30.376Z,50.23
2018-07-14T20:01:59.006Z,50.78
2018-07-14T20:04:28.361Z,50.56
2018-07-14T20:06:57.761Z,50.62
2018-07-14T20:09:26.286Z,51.22
2018-07-14T20:11:54.922Z,50.48
2018-07-14T20:14:23.461Z,50.23
2018-07-14T20:16:52.785Z,51.17
2018-07-14T20:19:22.157Z,50.71
2018-07-14T20:21:50.725Z,51.45
2018-07-14T20:24:20.038Z,51.58
2018-07-14T20:26:48.559Z,51.09
2018-07-14T20:29:18.024Z,50.66
2018-07-14T20:31:47.707Z,51.00
2018-07-14T20:34:16.701Z,50.94
2018-07-14T20:36:45.637Z,51.37
2018-07-14T20:39:14.472Z,50.53
2018-07-14T20:41:43.137Z,52.01
2018-07-14T20:44:12.100Z,51.39
2018-07-14T20:46:40.785Z,51.88
2018-07-14T20:49:09.611Z,51.70
2018-07-14T20:51:38.586Z,52.03
2018-07-14T20:54:07.744Z,52.03
2018-07-14T20:56:36.316Z,52.11
2018-07-14T20:59:04.796Z,52.57
2018-07-14T21:01:33.517Z,52.39
2018-07-14T21:04:02.215Z,52.37
2018-07-14T21:06:30.684Z,53.26
2018-07-14T21:09:01.346Z,52.59
2018-07-14T21:11:30.600Z,53.29
2018-07-14T21:13:59.691Z,52.85
2018-07-14T21:16:29.356Z,52.90
2018-07-14T21:18:58.754Z,53.13
2018-07-14T21:21:27.887Z,53.91
2018-07-14T21:23:57.255Z,53.50
2018-07-14T21:26:26.519Z,53.77
2018-07-14T21:28:55.079Z,54.14
2018-07-14T21:31:24.025Z,53.63
2018-07-14T21:33:52.614Z,53.89
2018-07-14T21:36:21.184Z,53.84
2018-07-14T21:38:51.123Z,54.36
2018-07-14T21:41:20.074Z,53.91
2018-07-14T21:43:48.833Z,54.09
2018-07-14T21:46:17.432Z,53.96
2018-07-14T21:48:47.644Z,54.72
2018-07-14T21:51:16.813Z,54.85
2018-07-14T21:53:46.606Z,55.00
2018-07-14T21:56:15.130Z,54.34
2018-07-14T21:58:43.669Z,55.20
2018-07-14T22:01:18.303Z,54.61
2018-07-14T22:03:47.428Z,54.93
2018-07-14T22:06:16.588Z,55.38
2018-07-14T22:08:46.917Z,55.54
2018-07-14T22:11:15.754Z,55.24
2018-07-14T22:13:45.172Z,55.63
2018-07-14T22:16:13.715Z,55.71
2018-07-14T22:18:42.182Z,56.27
2018-07-14T22:21:10.862Z,55.85
2018-07-14T22:23:39.848Z,56.05
2018-07-14T22:26:08.569Z,55.79
2018-07-14T22:28:37.696Z,55.73
2018-07-14T22:31:06.576Z,56.14
2018-07-14T22:33:35.199Z,56.54
2018-07-14T22:36:03.761Z,55.90
2018-07-14T22:38:32.395Z,56.28
2018-07-14T22:41:01.018Z,56.21
2018-07-14T22:43:30.327Z,56.31
2018-07-14T22:45:58.873Z,56.41
2018-07-14T22:48:27.597Z,56.51
2018-07-14T22:50:57.199Z,57.57
2018-07-14T22:53:26.851Z,57.87
2018-07-14T22:55:57.384Z,57.29
2018-07-14T22:58:27.939Z,57.93
2018-07-14T23:00:57.360Z,57.82
2018-07-14T23:03:26.528Z,57.87
2018-07-14T23:05:55.150Z,57.39
2018-07-14T23:08:24.741Z,58.16
2018-07-14T23:10:54.724Z,57.48
2018-07-14T23:13:23.455Z,58.23
2018-07-14T23:15:52.145Z,58.29
2018-07-14T23:18:23.549Z,58.36
2018-07-14T23:20:54.449Z,57.94
2018-07-14T23:23:24.692Z,58.46
2018-07-14T23:25:53.616Z,58.74
2018-07-14T23:28:22.546Z,58.71
2018-07-14T23:30:52.150Z,58.89
2018-07-14T23:33:21.357Z,58.42
2018-07-14T23:35:50.953Z,58.97
2018-07-14T23:38:19.536Z,58.41
2018-07-14T23:40:48.052Z,58.00
2018-07-14T23:43:17.489Z,58.18
2018-07-14T23:45:47.352Z,58.36
2018-07-14T23:48:15.941Z,57.67
2018-07-14T23:50:44.552Z,58.94
2018-07-14T23:53:13.290Z,58.41
2018-07-14T23:55:41.869Z,58.14
2018-07-14T23:58:11.016Z,58.25
